createdAt,value
2023-01-06T00:01:09.001Z,98665.13
2023-01-06T00:03:36.449Z,98675.63
2023-01-06T00:06:04.833Z,98678.25
2023-01-06T00:08:31.992Z,98684.66
2023-01-06T00:10:58.970Z,98685.63
2023-01-06T00:13:26.056Z,98688.59
2023-01-06T00:15:53.105Z,98697.56
2023-01-06T00:18:20.152Z,98700.41
2023-01-06T00:20:47.829Z,98707.44
2023-01-06T00:23:15.525Z,98711.28
2023-01-06T00:25:50.936Z,98719.97
2023-01-06T00:28:17.977Z,98718.63
2023-01-06T00:30:44.988Z,98720.16
2023-01-06T00:33:13.145Z,98725.56
2023-01-06T00:35:41.669Z,98723.31
2023-01-06T00:38:08.983Z,98734.31
2023-01-06T00:40:37.397Z,98732.00
2023-01-06T00:43:05.990Z,98737.13
2023-01-06T00:45:33.111Z,98751.78
2023-01-06T00:48:00.228Z,98755.22
2023-01-06T00:50:27.330Z,98752.00
2023-01-06T00:52:54.281Z,98746.16
2023-01-06T00:55:22.210Z,98751.41
2023-01-06T00:57:52.853Z,98759.88
2023-01-06T01:00:20.939Z,98758.53
2023-01-06T01:02:48.474Z,98758.13
2023-01-06T01:05:15.948Z,98768.47
2023-01-06T01:07:44.394Z,98775.44
2023-01-06T01:10:12.079Z,98774.09
2023-01-06T01:12:39.922Z,98796.25
2023-01-06T01:15:07.541Z,98794.75
2023-01-06T01:17:35.881Z,98788.84
2023-01-06T01:20:02.983Z,98792.38
2023-01-06T01:22:31.809Z,98796.72
2023-01-06T01:25:01.114Z,98800.34
2023-01-06T01:27:32.157Z,98803.13
2023-01-06T01:29:59.294Z,98809.13
2023-01-06T01:32:26.416Z,98806.06
2023-01-06T01:34:53.429Z,98797.59
2023-01-06T01:37:20.548Z,98814.66
2023-01-06T01:39:49.277Z,98820.94
2023-01-06T01:42:19.330Z,98840.31
2023-01-06T01:44:59.030Z,98830.28
2023-01-06T01:47:46.872Z,98844.03
2023-01-06T01:50:16.919Z,98837.31
2023-01-06T01:52:45.788Z,98852.88
2023-01-06T01:55:13.767Z,98852.28
2023-01-06T01:57:55.184Z,98854.94
2023-01-06T02:00:22.361Z,98862.78
2023-01-06T02:02:49.670Z,98844.13
2023-01-06T02:05:19.761Z,98861.69
2023-01-06T02:07:47.637Z,98862.75
2023-01-06T02:10:20.533Z,98855.91
2023-01-06T02:12:49.459Z,98856.13
2023-01-06T02:15:36.647Z,98859.75
2023-01-06T02:18:55.787Z,98865.88
2023-01-06T02:21:26.198Z,98866.97
2023-01-06T02:24:12.855Z,98876.50
2023-01-06T02:27:00.845Z,98879.13
2023-01-06T02:30:05.887Z,98879.41
2023-01-06T02:32:52.222Z,98883.78
2023-01-06T02:36:04.726Z,98891.81
2023-01-06T02:38:37.304Z,98895.31
2023-01-06T02:41:15.444Z,98896.44
2023-01-06T02:44:07.124Z,98905.69
2023-01-06T02:46:49.127Z,98905.88
2023-01-06T02:49:42.957Z,98910.47
2023-01-06T02:52:21.013Z,98905.34
2023-01-06T02:54:59.605Z,98910.69
2023-01-06T02:57:37.254Z,98920.75
2023-01-06T03:00:17.034Z,98934.34
2023-01-06T03:02:49.645Z,98936.22
2023-01-06T03:05:17.579Z,98937.31
2023-01-06T03:07:46.352Z,98934.88
2023-01-06T03:10:16.737Z,98941.50
2023-01-06T03:12:48.825Z,98955.19
2023-01-06T03:15:16.119Z,98959.56
2023-01-06T03:17:43.859Z,98948.66
2023-01-06T03:20:11.712Z,98957.22
2023-01-06T03:22:39.021Z,98960.63
2023-01-06T03:25:09.226Z,98964.13
2023-01-06T03:27:38.917Z,98971.81
2023-01-06T03:30:09.916Z,98974.59
2023-01-06T03:32:49.460Z,98983.13
2023-01-06T03:35:34.974Z,98984.91
2023-01-06T03:38:34.960Z,98975.75
2023-01-06T03:41:11.188Z,98982.47
2023-01-06T03:43:40.419Z,98991.72
2023-01-06T03:46:08.024Z,98999.47
2023-01-06T03:49:06.096Z,98997.00
2023-01-06T03:52:00.784Z,98995.38
2023-01-06T03:54:44.840Z,99006.56
2023-01-06T03:57:16.176Z,99006.56
2023-01-06T04:00:06.476Z,99012.59
2023-01-06T04:02:41.416Z,99011.81
2023-01-06T04:05:15.767Z,99016.00
2023-01-06T04:07:44.918Z,99016.22
2023-01-06T04:10:15.293Z,99028.75
2023-01-06T04:12:42.938Z,99034.78
2023-01-06T04:15:15.346Z,99033.13
2023-01-06T04:17:45.500Z,99029.75
2023-01-06T04:20:19.862Z,99028.97
2023-01-06T04:22:49.453Z,99037.34
2023-01-06T04:25:16.827Z,99039.88
2023-01-06T04:27:43.909Z,99042.56
2023-01-06T04:30:12.065Z,99051.94
2023-01-06T04:32:39.786Z,99051.22
2023-01-06T04:35:09.271Z,99057.22
2023-01-06T04:37:36.911Z,99064.97
2023-01-06T04:40:05.064Z,99066.88
2023-01-06T04:42:52.050Z,99069.53
2023-01-06T04:45:19.067Z,99068.72
2023-01-06T04:47:46.498Z,99064.50
2023-01-06T04:50:13.721Z,99071.34
2023-01-06T04:52:42.310Z,99080.66
2023-01-06T04:55:09.907Z,99078.91
2023-01-06T04:57:36.921Z,99069.72
2023-01-06T05:00:05.392Z,99077.41
2023-01-06T05:02:32.824Z,99076.59
2023-01-06T05:05:00.003Z,99079.97
2023-01-06T05:07:26.909Z,99080.84
2023-01-06T05:09:53.892Z,99078.44
2023-01-06T05:12:20.920Z,99078.50
2023-01-06T05:14:47.891Z,99080.38
2023-01-06T05:17:15.001Z,99085.78
2023-01-06T05:19:43.199Z,99094.19
2023-01-06T05:22:11.364Z,99093.38
2023-01-06T05:24:38.450Z,99099.25
2023-01-06T05:27:05.666Z,99100.31
2023-01-06T05:29:33.259Z,99113.94
2023-01-06T05:32:00.342Z,99122.59
2023-01-06T05:34:27.686Z,99122.66
2023-01-06T05:36:55.265Z,99122.72
2023-01-06T05:39:22.415Z,99125.47
2023-01-06T05:41:49.548Z,99138.00
2023-01-06T05:44:16.469Z,99144.94
2023-01-06T05:46:43.664Z,99147.44
2023-01-06T05:49:11.316Z,99146.69
2023-01-06T05:51:38.309Z,99147.84
2023-01-06T05:54:13.154Z,99156.34
2023-01-06T05:56:40.177Z,99152.41
2023-01-06T05:59:07.179Z,99170.16
2023-01-06T06:01:34.229Z,99172.75
2023-01-06T06:04:01.478Z,99180.38
2023-01-06T06:06:29.712Z,99179.56
2023-01-06T06:08:57.882Z,99173.66
2023-01-06T06:11:27.910Z,99188.94
2023-01-06T06:13:56.365Z,99188.94
2023-01-06T06:16:26.346Z,99193.84
2023-01-06T06:18:55.876Z,99204.13
2023-01-06T06:21:29.079Z,99200.00
2023-01-06T06:23:57.505Z,99207.59
2023-01-06T06:26:25.582Z,99210.97
2023-01-06T06:28:52.619Z,99215.16
2023-01-06T06:31:23.281Z,99214.38
2023-01-06T06:33:52.238Z,99226.16
2023-01-06T06:36:19.776Z,99226.91
2023-01-06T06:38:48.715Z,99239.69
2023-01-06T06:41:16.028Z,99237.97
2023-01-06T06:43:48.756Z,99238.03
2023-01-06T06:46:16.322Z,99222.94
2023-01-06T06:48:45.309Z,99245.88
2023-01-06T06:51:17.544Z,99256.03
2023-01-06T06:53:45.370Z,99257.75
2023-01-06T06:56:13.612Z,99278.06
2023-01-06T06:58:41.036Z,99263.47
2023-01-06T07:01:10.817Z,99265.09
2023-01-06T07:03:41.511Z,99268.25
2023-01-06T07:06:10.204Z,99267.22
2023-01-06T07:08:37.293Z,99277.06
2023-01-06T07:11:05.219Z,99273.25
2023-01-06T07:13:32.157Z,99265.25
2023-01-06T07:15:59.218Z,99280.31
2023-01-06T07:18:28.279Z,99281.63
2023-01-06T07:20:55.576Z,99288.63
2023-01-06T07:23:23.322Z,99290.44
2023-01-06T07:25:54.682Z,99279.16
2023-01-06T07:28:21.856Z,99290.75
2023-01-06T07:30:48.951Z,99292.25
2023-01-06T07:33:16.654Z,99302.28
2023-01-06T07:35:46.534Z,99308.13
2023-01-06T07:38:14.138Z,99318.03
2023-01-06T07:40:46.039Z,99320.06
2023-01-06T07:43:13.144Z,99326.59
2023-01-06T07:45:40.172Z,99331.63
2023-01-06T07:48:07.550Z,99330.16
2023-01-06T07:50:34.779Z,99336.34
2023-01-06T07:53:04.783Z,99337.34
2023-01-06T07:55:32.391Z,99333.44
2023-01-06T07:57:59.629Z,99341.38
2023-01-06T08:00:26.805Z,99348.69
2023-01-06T08:02:54.628Z,99348.06
2023-01-06T08:05:22.947Z,99346.81
2023-01-06T08:07:50.537Z,99353.84
2023-01-06T08:10:17.658Z,99360.41
2023-01-06T08:12:44.658Z,99364.66
2023-01-06T08:15:13.050Z,99362.75
2023-01-06T08:17:40.127Z,99368.78
2023-01-06T08:20:07.743Z,99365.19
2023-01-06T08:22:35.471Z,99362.31
2023-01-06T08:25:03.943Z,99364.34
2023-01-06T08:27:31.091Z,99358.13
2023-01-06T08:29:58.049Z,99377.19
2023-01-06T08:32:26.997Z,99382.75
2023-01-06T08:34:54.436Z,99385.16
2023-01-06T08:37:23.895Z,99386.94
2023-01-06T08:39:51.026Z,99383.63
2023-01-06T08:42:20.170Z,99381.50
2023-01-06T08:44:47.816Z,99379.25
2023-01-06T08:47:14.815Z,99406.34
2023-01-06T08:49:41.837Z,99399.78
2023-01-06T08:52:08.830Z,99405.22
2023-01-06T08:54:36.728Z,99411.03
2023-01-06T08:57:05.259Z,99409.50
2023-01-06T08:59:32.294Z,99411.84
2023-01-06T09:01:59.488Z,99411.84
2023-01-06T09:04:26.642Z,99414.72
2023-01-06T09:06:54.392Z,99417.88
2023-01-06T09:09:22.107Z,99428.00
2023-01-06T09:11:49.240Z,99421.38
2023-01-06T09:14:16.229Z,99413.31
2023-01-06T09:16:43.318Z,99411.91
2023-01-06T09:19:10.579Z,99416.06
2023-01-06T09:21:38.240Z,99403.50
2023-01-06T09:24:05.557Z,99401.25
2023-01-06T09:26:33.511Z,99393.94
2023-01-06T09:29:07.468Z,99388.75
2023-01-06T09:31:34.677Z,99381.44
2023-01-06T09:34:01.820Z,99376.03
2023-01-06T09:36:29.830Z,99391.75
2023-01-06T09:38:57.429Z,99392.00
2023-01-06T09:41:32.391Z,99408.97
2023-01-06T09:44:04.965Z,99400.25
2023-01-06T09:47:24.656Z,99406.97
2023-01-06T09:50:21.825Z,99415.13
2023-01-06T09:53:04.971Z,99396.03
2023-01-06T09:55:44.754Z,99421.97
2023-01-06T10:01:08.511Z,99404.66
2023-01-06T10:03:35.787Z,99409.44
2023-01-06T10:06:27.867Z,99413.97
2023-01-06T10:09:29.829Z,99407.50
2023-01-06T10:12:06.319Z,99414.84
2023-01-06T10:15:12.321Z,99422.63
2023-01-06T10:18:11.982Z,99417.53
2023-01-06T10:20:55.994Z,99416.59
2023-01-06T10:23:32.871Z,99421.31
2023-01-06T10:26:19.299Z,99423.00
2023-01-06T10:40:27.139Z,99456.34
2023-01-06T10:45:55.105Z,99435.41
2023-01-06T10:48:42.198Z,99452.69
2023-01-06T10:51:43.975Z,99446.81
2023-01-06T10:54:19.122Z,99447.84
2023-01-06T10:56:54.069Z,99425.41
2023-01-06T10:59:21.156Z,99442.31
2023-01-06T11:01:57.925Z,99447.94
2023-01-06T11:04:30.036Z,99444.31
2023-01-06T11:07:02.974Z,99445.16
2023-01-06T11:09:42.511Z,99451.19
2023-01-06T11:12:21.053Z,99457.56
2023-01-06T11:15:00.537Z,99455.91
2023-01-06T11:17:29.066Z,99451.53
2023-01-06T11:20:14.305Z,99453.97
2023-01-06T11:22:43.056Z,99453.38
2023-01-06T11:25:30.498Z,99456.06
2023-01-06T11:28:15.020Z,99454.22
2023-01-06T11:30:51.328Z,99447.88
2023-01-06T11:33:22.729Z,99457.47
2023-01-06T11:35:50.683Z,99465.78
2023-01-06T11:38:19.285Z,99461.47
2023-01-06T11:40:50.914Z,99464.47
2023-01-06T11:43:22.902Z,99460.13
2023-01-06T11:45:59.939Z,99440.25
2023-01-06T11:48:32.040Z,99468.75
2023-01-06T11:51:06.315Z,99461.56
2023-01-06T11:53:40.872Z,99453.03
2023-01-06T11:56:18.692Z,99462.97
2023-01-06T11:59:05.791Z,99473.69
2023-01-06T12:02:01.822Z,99467.84
2023-01-06T12:04:51.025Z,99474.94
2023-01-06T12:07:36.582Z,99485.19
2023-01-06T12:10:10.810Z,99485.66
2023-01-06T12:12:37.990Z,99500.34
2023-01-06T12:18:04.980Z,99490.00
2023-01-06T12:20:37.631Z,99495.41
2023-01-06T12:23:31.044Z,99490.47
2023-01-06T12:26:23.999Z,99502.63
2023-01-06T12:28:54.377Z,99502.97
2023-01-06T12:31:37.332Z,99513.22
2023-01-06T12:34:19.920Z,99514.88
2023-01-06T12:37:15.748Z,99503.28
2023-01-06T12:39:55.999Z,99513.97
2023-01-06T12:42:38.230Z,99522.34
2023-01-06T12:51:05.955Z,99545.19
2023-01-06T12:56:48.955Z,99551.88
2023-01-06T12:59:25.336Z,99549.38
2023-01-06T13:08:26.302Z,99560.09
2023-01-06T13:14:22.652Z,99579.16
2023-01-06T13:19:53.175Z,99579.69
2023-01-06T13:22:47.015Z,99593.44
2023-01-06T13:25:45.340Z,99596.38
2023-01-06T13:28:21.305Z,99607.78
2023-01-06T13:31:41.355Z,99598.38
2023-01-06T13:34:31.306Z,99595.00
2023-01-06T13:37:16.114Z,99602.81
2023-01-06T13:39:55.796Z,99611.16
2023-01-06T13:42:46.269Z,99607.72
2023-01-06T13:45:39.807Z,99612.19
2023-01-06T13:48:11.147Z,99608.22
2023-01-06T13:50:40.048Z,99615.06
2023-01-06T13:53:07.478Z,99617.63
2023-01-06T13:55:40.944Z,99620.34
2023-01-06T13:58:29.146Z,99627.31
2023-01-06T14:01:20.383Z,99631.00
2023-01-06T14:03:54.088Z,99626.66
2023-01-06T14:06:30.907Z,99638.47
2023-01-06T14:09:23.667Z,99640.69
2023-01-06T14:12:03.724Z,99631.66
2023-01-06T14:14:34.984Z,99640.19
2023-01-06T14:17:02.404Z,99643.44
2023-01-06T14:19:32.680Z,99645.25
2023-01-06T14:22:34.078Z,99642.03
2023-01-06T14:25:04.668Z,99626.81
2023-01-06T14:28:03.913Z,99622.78
2023-01-06T14:30:36.087Z,99655.28
2023-01-06T14:33:12.439Z,99655.22
2023-01-06T14:35:47.175Z,99640.00
2023-01-06T14:38:24.676Z,99655.75
2023-01-06T14:40:57.279Z,99654.31
2023-01-06T14:43:38.015Z,99656.19
2023-01-06T14:46:15.491Z,99658.13
2023-01-06T14:48:46.785Z,99664.97
2023-01-06T14:51:20.165Z,99657.56
2023-01-06T14:54:18.114Z,99672.84
2023-01-06T14:56:56.551Z,99668.72
2023-01-06T14:59:24.056Z,99680.66
2023-01-06T15:02:14.204Z,99675.63
2023-01-06T15:04:43.205Z,99686.56
2023-01-06T15:07:18.912Z,99688.59
2023-01-06T15:09:47.527Z,99695.53
2023-01-06T15:12:23.885Z,99703.03
2023-01-06T15:14:51.179Z,99703.16
2023-01-06T15:17:18.398Z,99712.44
2023-01-06T15:19:48.722Z,99703.13
2023-01-06T15:22:26.273Z,99716.75
2023-01-06T15:24:57.646Z,99704.94
2023-01-06T15:27:26.079Z,99719.38
2023-01-06T15:29:56.236Z,99715.94
2023-01-06T15:32:26.522Z,99708.41
2023-01-06T15:34:56.691Z,99712.97
2023-01-06T15:40:22.842Z,99717.25
2023-01-06T15:42:49.908Z,99714.66
2023-01-06T15:45:37.701Z,99712.13
2023-01-06T15:48:27.789Z,99719.00
2023-01-06T15:50:58.888Z,99724.25
2023-01-06T15:53:32.545Z,99722.66
2023-01-06T15:56:06.205Z,99727.81
2023-01-06T15:58:37.072Z,99743.25
2023-01-06T16:01:17.684Z,99739.16
2023-01-06T16:03:48.947Z,99740.13
2023-01-06T16:06:30.223Z,99739.34
2023-01-06T16:09:35.930Z,99744.31
2023-01-06T16:12:12.138Z,99746.88
2023-01-06T16:14:43.920Z,99743.53
2023-01-06T16:17:32.182Z,99751.28
2023-01-06T16:20:07.921Z,99755.56
2023-01-06T16:22:41.287Z,99748.84
2023-01-06T16:25:28.488Z,99767.50
2023-01-06T16:31:10.865Z,99754.16
2023-01-06T16:33:40.021Z,99761.75
2023-01-06T16:36:17.517Z,99776.22
2023-01-06T16:38:46.560Z,99757.63
2023-01-06T16:41:24.860Z,99754.25
2023-01-06T16:43:52.450Z,99756.75
2023-01-06T16:49:26.391Z,99764.38
2023-01-06T16:51:55.142Z,99772.84
2023-01-06T16:54:23.640Z,99753.38
2023-01-06T16:56:52.627Z,99755.88
2023-01-06T16:59:29.676Z,99746.50
2023-01-06T17:01:58.405Z,99765.09
2023-01-06T17:09:55.524Z,99765.22
2023-01-06T17:12:45.689Z,99785.56
2023-01-06T17:15:12.931Z,99782.22
2023-01-06T17:17:42.222Z,99795.88
2023-01-06T17:23:07.785Z,99767.13
2023-01-06T17:25:43.276Z,99802.75
2023-01-06T17:29:06.092Z,99801.88
2023-01-06T17:34:53.986Z,99790.03
2023-01-06T17:37:31.814Z,99805.31
2023-01-06T17:48:02.454Z,99808.84
2023-01-06T17:53:58.788Z,99831.72
2023-01-06T18:00:13.046Z,99824.13
2023-01-06T18:09:58.456Z,99825.84
2023-01-06T18:12:26.225Z,99834.41
2023-01-06T18:22:11.161Z,99840.41
2023-01-06T18:56:50.773Z,99850.78
2023-01-06T18:59:19.776Z,99850.81
2023-01-06T19:01:53.069Z,99850.84
2023-01-06T19:04:38.909Z,99859.38
2023-01-06T19:07:31.545Z,99867.84
2023-01-06T19:29:00.470Z,99877.25
2023-01-06T19:31:27.933Z,99878.97
2023-01-06T19:34:04.334Z,99877.25
2023-01-06T19:36:40.414Z,99886.66
2023-01-06T19:39:26.460Z,99890.88
2023-01-06T19:41:57.765Z,99859.50
2023-01-06T19:47:30.045Z,99886.66
2023-01-06T19:52:44.929Z,99865.50
2023-01-06T19:59:14.981Z,99883.25
2023-01-06T20:01:42.811Z,99875.63
2023-01-06T20:07:16.094Z,99890.06
2023-01-06T20:09:43.243Z,99895.22
2023-01-06T20:15:06.621Z,99894.34
2023-01-06T20:17:36.205Z,99884.19
2023-01-06T20:20:06.276Z,99901.97
2023-01-06T20:22:33.613Z,99875.69
2023-01-06T20:25:01.893Z,99905.38
2023-01-06T20:27:31.309Z,99885.84
2023-01-06T20:35:32.988Z,99907.97
2023-01-06T20:38:00.761Z,99921.56
2023-01-06T20:40:27.749Z,99914.78
2023-01-06T20:42:57.029Z,99926.69
2023-01-06T20:45:25.170Z,99937.72
2023-01-06T20:47:53.437Z,99930.94
2023-01-06T20:56:27.682Z,99929.28
2023-01-06T20:58:57.159Z,99918.28
2023-01-06T21:01:49.217Z,99931.84
2023-01-06T21:04:16.726Z,99931.03
2023-01-06T21:06:44.580Z,99937.81
2023-01-06T21:09:11.664Z,99948.84
2023-01-06T21:11:38.612Z,99955.66
2023-01-06T21:14:05.741Z,99948.84
2023-01-06T21:16:32.730Z,99952.25
2023-01-06T21:19:00.236Z,99951.38
2023-01-06T21:21:27.330Z,99950.53
2023-01-06T21:23:56.803Z,99954.78
2023-01-06T21:26:23.916Z,99951.41
2023-01-06T21:28:50.996Z,99947.97
2023-01-06T21:31:18.005Z,99960.75
2023-01-06T21:33:45.005Z,99949.72
2023-01-06T21:36:12.174Z,99950.53
2023-01-06T21:38:39.953Z,99948.81
2023-01-06T21:41:25.764Z,99947.13
2023-01-06T21:43:53.417Z,99952.22
2023-01-06T21:46:20.753Z,99949.63
2023-01-06T21:48:49.995Z,99955.63
2023-01-06T21:51:17.310Z,99955.59
2023-01-06T21:53:45.270Z,99948.78
2023-01-06T21:56:12.514Z,99955.59
2023-01-06T21:58:43.824Z,99936.03
2023-01-06T22:01:10.969Z,99949.63
2023-01-06T22:03:38.295Z,99949.63
2023-01-06T22:06:05.625Z,99942.81
2023-01-06T22:08:32.978Z,99955.56
2023-01-06T22:11:00.123Z,99952.16
2023-01-06T22:13:27.498Z,99955.59
2023-01-06T22:15:54.774Z,99947.94
2023-01-06T22:18:21.983Z,99953.88
2023-01-06T22:20:48.962Z,99951.34
2023-01-06T22:23:18.280Z,99960.72
2023-01-06T22:25:45.497Z,99945.44
2023-01-06T22:28:12.536Z,99976.03
2023-01-06T22:30:39.564Z,99976.91
2023-01-06T22:33:06.740Z,99976.06
2023-01-06T22:35:33.891Z,99966.72
2023-01-06T22:38:00.957Z,99974.34
2023-01-06T22:40:28.275Z,99976.91
2023-01-06T22:42:56.830Z,99972.63
2023-01-06T22:45:23.921Z,99976.06
2023-01-06T22:47:50.884Z,99976.06
2023-01-06T22:50:17.968Z,99973.53
2023-01-06T22:52:44.952Z,99968.44
2023-01-06T22:55:12.014Z,99964.19
2023-01-06T22:57:40.420Z,99962.50
2023-01-06T23:00:14.295Z,99971.00
2023-01-06T23:02:41.598Z,99970.22
2023-01-06T23:05:10.030Z,99966.81
2023-01-06T23:07:39.222Z,99970.19
2023-01-06T23:10:08.525Z,99976.16
2023-01-06T23:12:37.357Z,99982.13
2023-01-06T23:15:04.917Z,99986.38
2023-01-06T23:17:31.941Z,99977.88
2023-01-06T23:19:59.081Z,99980.44
2023-01-06T23:22:26.216Z,99976.16
2023-01-06T23:24:53.778Z,99982.16
2023-01-06T23:27:20.860Z,99989.78
2023-01-06T23:29:48.071Z,99988.09
2023-01-06T23:32:15.176Z,99990.63
2023-01-06T23:34:43.271Z,99982.97
2023-01-06T23:37:10.358Z,99989.78
2023-01-06T23:39:37.375Z,99994.03
2023-01-06T23:42:07.410Z,99986.41
2023-01-06T23:44:34.482Z,99994.88
2023-01-06T23:47:01.453Z,99999.16
2023-01-06T23:49:28.573Z,99999.16
2023-01-06T23:51:55.598Z,100004.22
2023-01-06T23:54:22.641Z,100011.88
2023-01-06T23:56:49.832Z,100008.50
2023-01-06T23:59:16.887Z,100014.44
